Terminal Aerodrome Forecast
Issued by NWS

Home | Current Version | Previous Version | Text Only | Print | Product List | Glossary On
Versions: 1 2 3 4 5 6 7 8 9 10 11 12 13 14 15 16 17 18 19 20 21 22 23 24 25 26 27 28 29 30 31 32 33 34 35 36 37 38 39 40
000
FTUS43 KDLH 281828 AAA
TAFHIB
TAF AMD
KHIB 281828Z 2818/2918 33006KT P6SM VCTS SCT025 BKN050CB
      TEMPO 2818/2820 35006G25KT 1 1/2SM +TSRA BKN030CB BKN040
     FM282000 34007KT P6SM VCTS BKN050CB
      TEMPO 2820/2822 5SM -TSRA SCT035 BKN050CB
     FM290100 VRB04KT P6SM BKN070
     FM290900 VRB03KT 5SM BR BKN050
     FM291100 30005KT P6SM BKN070
     FM291400 31007KT P6SM SCT040 BKN080=

USA.gov is the U.S. government's official web portal to all federal, state and local government web resources and services.